Time;durP1;ratioP1;P1;durP2;ratioP2;P2;SDS_P1;SDS_P2;PMS_P1;PMS_P2;Temp;Humidity;BMP_temperature;BMP_pressure;BME280_temperature;BME280_humidity;BME280_pressure;Samples;Min_cycle;Max_cycle;Signal;HPM_P1;HPM_P2
2021/01/30 00:01:04;;;;;;;1.90;0.50;;;;;;;4.62;87.72;94179.78;5016131;28;20601;-77
2021/01/30 00:03:31;;;;;;;0.70;0.20;;;;;;;4.69;87.14;94185.91;5026407;28;20626;-76
2021/01/30 00:05:58;;;;;;;0.47;0.47;;;;;;;4.67;87.50;94193.13;5020246;28;20283;-77
2021/01/30 00:08:25;;;;;;;0.33;0.30;;;;;;;4.62;87.91;94185.00;5028051;28;20723;-76
2021/01/30 00:10:52;;;;;;;0.60;0.20;;;;;;;4.65;87.77;94189.84;5024325;28;20225;-77
2021/01/30 00:13:18;;;;;;;0.20;0.20;;;;;;;4.77;87.35;94187.59;5020432;28;20568;-76
2021/01/30 00:15:46;;;;;;;0.73;0.33;;;;;;;4.75;87.03;94194.78;5023872;28;20295;-76
2021/01/30 00:18:13;;;;;;;2.67;1.23;;;;;;;4.79;87.34;94181.19;5022287;28;20696;-76
2021/01/30 00:20:40;;;;;;;3.37;0.50;;;;;;;4.74;87.40;94183.53;5024150;28;20232;-77
2021/01/30 00:23:08;;;;;;;3.50;0.63;;;;;;;4.81;87.24;94199.28;5009187;28;20224;-76
2021/01/30 00:25:37;;;;;;;0.87;0.27;;;;;;;4.78;87.62;94205.69;5028895;28;20251;-77
2021/01/30 00:28:05;;;;;;;0.67;0.30;;;;;;;4.71;88.27;94198.78;5028158;28;20286;-77
2021/01/30 00:30:33;;;;;;;0.43;0.33;;;;;;;4.56;88.96;94181.31;5016798;28;20270;-77
2021/01/30 00:33:03;;;;;;;0.43;0.20;;;;;;;4.78;88.36;94215.34;5027724;28;21792;-77
2021/01/30 00:35:33;;;;;;;2.43;0.70;;;;;;;4.90;87.45;94207.81;5024880;28;20339;-77
2021/01/30 00:38:00;;;;;;;2.10;0.50;;;;;;;4.84;87.54;94199.72;5024297;28;20243;-76
2021/01/30 00:40:28;;;;;;;0.23;0.20;;;;;;;4.88;86.90;94194.94;5023606;28;20340;-77
2021/01/30 00:42:56;;;;;;;0.47;0.47;;;;;;;4.84;87.10;94194.50;5022504;28;20293;-76
2021/01/30 00:45:26;;;;;;;1.57;0.77;;;;;;;4.84;86.68;94220.63;5026683;28;20226;-76
2021/01/30 00:47:53;;;;;;;0.83;0.30;;;;;;;4.97;86.11;94203.47;5027458;28;20247;-77
2021/01/30 00:50:24;;;;;;;0.40;0.40;;;;;;;5.00;85.63;94208.34;5010320;28;20314;-76
2021/01/30 00:52:52;;;;;;;3.40;0.63;;;;;;;4.94;85.95;94212.50;5022120;28;20232;-76
2021/01/30 00:55:23;;;;;;;0.50;0.30;;;;;;;4.90;85.77;94220.91;5025881;28;20220;-76
2021/01/30 00:57:55;;;;;;;0.23;0.20;;;;;;;4.99;85.20;94217.19;5002052;28;20225;-76
2021/01/30 01:00:25;;;;;;;0.60;0.30;;;;;;;5.05;85.08;94224.28;5008987;28;20224;-76
2021/01/30 01:02:56;;;;;;;0.10;0.10;;;;;;;4.97;85.22;94214.75;5007888;28;20689;-77
2021/01/30 01:05:29;;;;;;;2.40;1.80;;;;;;;5.01;84.77;94221.22;5008614;28;20238;-76
2021/01/30 01:07:56;;;;;;;0.40;0.13;;;;;;;4.93;85.18;94238.81;5024122;28;20230;-76
2021/01/30 01:10:23;;;;;;;2.67;1.20;;;;;;;4.94;84.90;94235.19;5021270;28;20316;-77
2021/01/30 01:12:51;;;;;;;2.77;0.30;;;;;;;4.96;85.17;94249.72;5021167;28;20233;-76
2021/01/30 01:15:19;;;;;;;1.80;0.50;;;;;;;4.95;85.46;94253.34;5022652;28;20275;-76
2021/01/30 01:17:46;;;;;;;0.73;0.10;;;;;;;4.89;86.16;94251.44;5025463;28;20232;-77
2021/01/30 01:20:16;;;;;;;0.67;0.47;;;;;;;4.85;86.40;94253.63;5021850;28;20254;-76
2021/01/30 01:22:44;;;;;;;0.40;0.20;;;;;;;4.72;87.02;94248.22;5009488;28;20681;-76
2021/01/30 01:25:11;;;;;;;2.70;0.27;;;;;;;4.65;88.02;94262.19;5028324;28;20263;-76
2021/01/30 01:27:39;;;;;;;0.63;0.20;;;;;;;4.63;88.38;94280.69;5011906;28;20312;-76
2021/01/30 01:30:08;;;;;;;1.93;0.20;;;;;;;4.63;88.48;94280.69;5021432;28;20240;-76
2021/01/30 01:32:35;;;;;;;0.30;0.30;;;;;;;4.59;88.42;94273.41;5011357;28;20302;-77
2021/01/30 01:35:04;;;;;;;0.80;0.40;;;;;;;4.42;89.46;94272.75;5024998;28;20231;-76
2021/01/30 01:37:31;;;;;;;0.40;0.40;;;;;;;4.22;90.75;94290.78;5022849;28;20304;-77
2021/01/30 01:39:59;;;;;;;3.40;1.27;;;;;;;4.18;92.01;94299.94;5010438;28;20223;-77
2021/01/30 01:42:26;;;;;;;0.50;0.33;;;;;;;4.18;92.35;94292.09;5020103;28;20224;-77
2021/01/30 01:44:54;;;;;;;0.67;0.67;;;;;;;4.25;92.42;94290.41;5019828;28;20228;-77
2021/01/30 01:47:25;;;;;;;0.97;0.20;;;;;;;4.35;91.36;94269.25;5013721;28;20304;-76
2021/01/30 01:49:54;;;;;;;4.20;0.83;;;;;;;4.38;90.97;94276.72;5018910;28;20289;-77
2021/01/30 01:52:26;;;;;;;0.27;0.10;;;;;;;4.36;89.91;94284.72;5021928;28;20282;-76
2021/01/30 01:54:57;;;;;;;1.33;0.27;;;;;;;4.25;89.89;94278.16;5026897;28;20231;-76
2021/01/30 01:57:26;;;;;;;0.20;0.10;;;;;;;4.20;89.12;94264.00;5022706;28;20246;-76
2021/01/30 01:59:56;;;;;;;0.30;0.20;;;;;;;4.28;89.11;94293.44;5015640;28;20223;-77
2021/01/30 02:02:27;;;;;;;0.23;0.10;;;;;;;4.28;88.69;94283.00;5027270;28;20674;-77
2021/01/30 02:05:02;;;;;;;2.23;0.20;;;;;;;4.30;88.45;94285.47;5026713;28;20685;-76
2021/01/30 02:07:29;;;;;;;0.20;0.20;;;;;;;4.22;88.66;94299.41;5016674;28;20219;-77
2021/01/30 02:09:56;;;;;;;1.40;0.20;;;;;;;4.32;88.34;94287.91;5016320;28;20224;-76
2021/01/30 02:12:27;;;;;;;0.20;0.10;;;;;;;4.32;88.33;94278.25;5019109;28;20243;-76
2021/01/30 02:14:55;;;;;;;0.00;0.00;;;;;;;4.38;87.67;94292.38;5024160;28;20219;-76
2021/01/30 02:17:37;;;;;;;0.10;0.10;;;;;;;4.34;88.18;94288.53;5016784;28;20497;-76
2021/01/30 02:20:52;;;;;;;0.20;0.10;;;;;;;4.33;89.18;94294.72;5015507;28;20231;-77
2021/01/30 02:23:51;;;;;;;0.20;0.20;;;;;;;4.39;88.80;94283.56;4935180;28;20295;-77
2021/01/30 02:26:51;;;;;;;0.07;0.00;;;;;;;4.51;88.85;94282.13;5011432;28;20315;-77
2021/01/30 02:29:52;;;;;;;2.43;0.20;;;;;;;4.42;88.74;94283.22;5023371;28;20270;-76
2021/01/30 02:32:28;;;;;;;1.17;0.13;;;;;;;4.56;88.41;94279.78;5014652;28;20298;-76
2021/01/30 02:35:18;;;;;;;0.50;0.17;;;;;;;4.60;87.60;94283.66;5008616;28;20315;-76
2021/01/30 02:37:50;;;;;;;0.33;0.23;;;;;;;4.64;86.96;94281.50;5009098;28;20281;-76
2021/01/30 02:40:21;;;;;;;0.10;0.10;;;;;;;4.62;87.10;94289.50;5025238;28;20741;-76
2021/01/30 02:42:53;;;;;;;0.30;0.20;;;;;;;4.63;86.53;94272.84;5022564;28;20229;-77
2021/01/30 02:45:23;;;;;;;1.10;0.63;;;;;;;4.66;86.83;94266.44;5017143;28;20217;-76
2021/01/30 02:48:08;;;;;;;0.20;0.10;;;;;;;4.74;85.65;94280.22;5006536;28;20649;-77
2021/01/30 02:50:39;;;;;;;0.10;0.07;;;;;;;4.73;85.07;94285.63;5006615;28;20226;-76
2021/01/30 02:53:08;;;;;;;0.93;0.60;;;;;;;4.67;84.94;94287.19;5018337;28;20224;-77
2021/01/30 02:55:37;;;;;;;0.40;0.10;;;;;;;4.65;85.08;94278.69;5025257;28;20640;-76
2021/01/30 02:58:07;;;;;;;0.20;0.10;;;;;;;4.56;85.43;94275.34;5023609;28;20772;-77
2021/01/30 03:00:35;;;;;;;0.63;0.63;;;;;;;4.57;85.95;94270.94;5025572;28;20224;-76
2021/01/30 03:03:03;;;;;;;0.30;0.30;;;;;;;4.65;85.74;94273.47;5012946;28;20518;-76
2021/01/30 03:05:30;;;;;;;0.13;0.10;;;;;;;4.67;85.34;94271.50;5020322;28;20544;-76
2021/01/30 03:08:14;;;;;;;0.63;0.10;;;;;;;4.66;86.05;94280.31;5015206;28;20248;-77
2021/01/30 03:10:50;;;;;;;0.30;0.30;;;;;;;4.60;86.35;94278.44;5016302;28;20778;-77
2021/01/30 03:13:26;;;;;;;0.30;0.30;;;;;;;4.63;86.09;94267.63;5017898;28;20678;-76
2021/01/30 03:15:56;;;;;;;0.10;0.10;;;;;;;4.65;85.88;94270.84;5007133;28;20243;-76
2021/01/30 03:18:31;;;;;;;0.40;0.40;;;;;;;4.70;85.94;94270.31;5020176;28;20223;-76
2021/01/30 03:20:59;;;;;;;3.40;1.40;;;;;;;4.55;86.04;94267.72;5012957;28;20236;-76
2021/01/30 03:23:27;;;;;;;2.00;0.20;;;;;;;4.51;86.24;94251.59;5010013;28;20220;-76
2021/01/30 03:25:55;;;;;;;0.10;0.10;;;;;;;4.47;86.68;94265.19;5006290;28;20701;-76
2021/01/30 03:28:22;;;;;;;0.30;0.20;;;;;;;4.57;86.17;94261.34;4988739;28;20713;-76
2021/01/30 03:30:49;;;;;;;1.93;0.80;;;;;;;4.46;86.03;94263.56;5023335;28;20223;-76
2021/01/30 03:33:16;;;;;;;0.50;0.30;;;;;;;4.54;85.95;94264.28;5025938;28;20227;-76
2021/01/30 03:35:43;;;;;;;0.40;0.20;;;;;;;4.40;86.75;94266.91;5023948;28;20584;-76
2021/01/30 03:38:10;;;;;;;1.60;0.60;;;;;;;4.36;86.81;94255.19;5021069;28;20577;-76
2021/01/30 03:40:39;;;;;;;0.20;0.20;;;;;;;4.42;86.95;94257.91;5024636;28;20310;-76
2021/01/30 03:43:07;;;;;;;1.07;0.97;;;;;;;4.54;86.17;94263.47;5022315;28;20226;-76
2021/01/30 03:45:34;;;;;;;0.47;0.20;;;;;;;4.45;86.00;94262.75;5025082;28;20314;-76
2021/01/30 03:48:00;;;;;;;2.67;0.60;;;;;;;4.41;86.42;94260.69;5013773;28;20319;-76
2021/01/30 03:50:27;;;;;;;0.43;0.40;;;;;;;4.40;86.86;94253.88;5028519;28;20250;-76
2021/01/30 03:52:55;;;;;;;0.57;0.30;;;;;;;4.43;86.94;94240.44;5027294;28;20705;-76
2021/01/30 03:55:23;;;;;;;2.03;0.30;;;;;;;4.45;86.77;94251.50;5021304;28;20231;-76
2021/01/30 03:57:52;;;;;;;1.83;0.53;;;;;;;4.45;86.32;94264.56;5027238;28;20269;-76
2021/01/30 04:00:22;;;;;;;2.27;0.53;;;;;;;4.39;86.14;94253.06;5015106;28;20224;-76
2021/01/30 04:02:49;;;;;;;0.83;0.30;;;;;;;4.36;86.38;94261.22;5039738;28;20576;-76
2021/01/30 04:05:20;;;;;;;1.50;0.70;;;;;;;4.41;86.31;94265.94;5034688;28;20227;-76
2021/01/30 04:07:48;;;;;;;4.20;0.47;;;;;;;4.34;85.85;94275.47;5027733;28;20681;-76
2021/01/30 04:10:18;;;;;;;1.63;1.37;;;;;;;4.29;87.01;94268.97;5023652;28;20232;-76
2021/01/30 04:12:46;;;;;;;2.43;0.60;;;;;;;4.42;86.41;94264.94;5025525;28;20281;-76
2021/01/30 04:15:16;;;;;;;1.27;0.77;;;;;;;4.41;85.87;94266.72;5013272;28;20234;-76
2021/01/30 04:17:43;;;;;;;3.63;0.30;;;;;;;4.30;85.56;94264.56;5000740;28;20269;-76
2021/01/30 04:20:12;;;;;;;1.43;0.27;;;;;;;4.28;85.80;94258.69;5015784;28;20236;-76
2021/01/30 04:22:39;;;;;;;3.30;0.50;;;;;;;4.37;84.87;94257.63;5027136;28;20297;-76
2021/01/30 04:25:07;;;;;;;1.30;0.80;;;;;;;4.37;84.67;94256.81;5027419;28;20512;-76
2021/01/30 04:27:33;;;;;;;1.40;1.13;;;;;;;4.34;84.78;94249.34;5028323;28;20732;-76
2021/01/30 04:30:01;;;;;;;1.73;0.43;;;;;;;4.24;84.27;94260.88;5019474;28;20314;-76
2021/01/30 04:32:28;;;;;;;2.00;0.60;;;;;;;4.23;84.01;94245.38;5027911;28;20311;-76
2021/01/30 04:34:55;;;;;;;3.47;0.30;;;;;;;4.31;83.13;94232.25;5010340;28;20220;-76
2021/01/30 04:37:22;;;;;;;0.47;0.40;;;;;;;4.36;82.71;94252.59;5018097;28;20258;-76
2021/01/30 04:39:49;;;;;;;3.83;1.10;;;;;;;4.37;82.41;94235.91;5027487;28;20324;-76
2021/01/30 04:42:20;;;;;;;2.50;1.47;;;;;;;4.32;82.19;94240.88;5019867;28;20219;-76
2021/01/30 04:44:54;;;;;;;2.47;1.23;;;;;;;4.29;82.92;94242.84;5024809;28;20672;-76
2021/01/30 04:47:44;;;;;;;1.17;0.50;;;;;;;4.40;82.22;94239.00;5026824;28;20278;-76
2021/01/30 04:50:18;;;;;;;1.33;0.93;;;;;;;4.45;82.25;94230.59;5026948;28;20458;-76
2021/01/30 04:52:50;;;;;;;1.03;0.50;;;;;;;4.44;82.62;94234.22;5018908;28;20243;-76
2021/01/30 04:55:44;;;;;;;2.67;0.90;;;;;;;4.41;83.00;94226.75;5013851;28;20227;-76
2021/01/30 04:58:15;;;;;;;4.63;0.37;;;;;;;4.28;84.78;94236.00;5021721;28;20319;-77
2021/01/30 05:01:03;;;;;;;2.57;0.80;;;;;;;4.15;85.26;94212.34;5025792;28;20557;-76
2021/01/30 05:03:46;;;;;;;1.33;0.43;;;;;;;4.29;84.99;94208.91;5012567;28;20319;-76
2021/01/30 05:06:17;;;;;;;2.70;2.33;;;;;;;4.21;85.56;94209.03;5007770;28;20451;-76
2021/01/30 05:08:48;;;;;;;2.00;0.63;;;;;;;4.23;85.03;94191.38;5028077;28;20661;-76
2021/01/30 05:11:20;;;;;;;3.47;0.40;;;;;;;4.25;85.69;94199.00;5018069;28;20549;-76
2021/01/30 05:13:56;;;;;;;2.83;0.80;;;;;;;4.25;85.34;94204.22;5022278;28;20230;-76
2021/01/30 05:16:28;;;;;;;1.03;0.77;;;;;;;4.23;85.52;94196.59;5007221;28;20673;-76
2021/01/30 05:19:01;;;;;;;1.47;1.37;;;;;;;4.33;85.72;94191.09;5020926;28;20809;-77
2021/01/30 05:21:37;;;;;;;1.17;0.30;;;;;;;4.38;85.25;94187.91;5021823;28;20316;-76
2021/01/30 05:24:05;;;;;;;8.23;2.07;;;;;;;4.24;85.29;94182.53;5008060;28;20661;-76
2021/01/30 05:26:42;;;;;;;4.00;1.00;;;;;;;4.19;85.97;94179.66;4999656;28;20225;-76
2021/01/30 05:29:14;;;;;;;0.83;0.60;;;;;;;4.32;85.40;94178.22;5008334;28;20220;-76
2021/01/30 05:32:08;;;;;;;1.50;0.60;;;;;;;4.36;85.40;94171.63;5012411;28;20319;-76
2021/01/30 05:34:45;;;;;;;1.33;1.23;;;;;;;4.41;84.95;94171.91;5027228;28;20298;-76
2021/01/30 05:37:17;;;;;;;3.87;0.40;;;;;;;4.37;85.26;94166.22;5019384;28;20260;-76
2021/01/30 05:39:54;;;;;;;1.00;0.47;;;;;;;4.35;85.37;94167.41;5040455;28;20259;-76
2021/01/30 05:42:32;;;;;;;1.77;0.93;;;;;;;4.40;85.37;94165.88;5018795;28;20250;-76
2021/01/30 05:45:05;;;;;;;3.03;0.90;;;;;;;4.38;84.93;94164.41;5028566;28;20693;-76
2021/01/30 05:47:33;;;;;;;4.70;1.30;;;;;;;4.43;85.07;94169.91;5025624;28;20320;-76
2021/01/30 05:50:08;;;;;;;2.57;1.13;;;;;;;4.42;84.72;94173.53;5025740;28;20259;-76
2021/01/30 05:52:38;;;;;;;7.67;1.80;;;;;;;4.36;84.94;94164.59;5018083;28;20224;-76
2021/01/30 05:55:21;;;;;;;5.40;1.27;;;;;;;4.45;84.87;94157.47;5009238;28;20294;-76
2021/01/30 05:57:48;;;;;;;4.37;1.37;;;;;;;4.33;85.34;94148.50;5020872;28;20333;-76
2021/01/30 06:00:19;;;;;;;1.13;0.50;;;;;;;4.45;84.84;94158.28;5017303;28;20285;-76
2021/01/30 06:03:02;;;;;;;1.33;0.40;;;;;;;4.47;84.66;94155.47;5019070;28;20229;-76
2021/01/30 06:05:34;;;;;;;5.37;0.60;;;;;;;4.51;84.60;94156.75;5027022;28;20281;-75
2021/01/30 06:08:25;;;;;;;4.23;1.23;;;;;;;4.46;84.33;94154.66;5024101;28;20768;-76
2021/01/30 06:11:05;;;;;;;1.60;0.33;;;;;;;4.50;83.87;94155.94;5020363;28;20989;-76
2021/01/30 06:13:32;;;;;;;0.70;0.50;;;;;;;4.52;84.09;94174.84;5014452;28;20230;-76
2021/01/30 06:16:01;;;;;;;0.77;0.40;;;;;;;4.42;84.38;94168.28;5013972;28;20251;-76
2021/01/30 06:18:36;;;;;;;3.17;0.63;;;;;;;4.45;84.00;94152.25;5020409;28;20271;-76
2021/01/30 06:21:16;;;;;;;0.57;0.40;;;;;;;4.42;84.33;94163.88;5025774;28;20748;-76
2021/01/30 06:24:03;;;;;;;1.43;1.03;;;;;;;4.36;84.63;94158.56;5024928;28;20224;-76
2021/01/30 06:26:30;;;;;;;3.47;1.80;;;;;;;4.40;84.09;94154.63;5022257;28;20313;-76
2021/01/30 06:29:01;;;;;;;1.37;0.53;;;;;;;4.38;84.56;94153.97;5017856;28;20273;-75
2021/01/30 06:31:32;;;;;;;5.93;1.97;;;;;;;4.29;84.51;94154.06;5009257;28;20225;-71
2021/01/30 06:34:04;;;;;;;1.60;0.50;;;;;;;4.28;84.71;94155.06;5013703;28;20216;-71
2021/01/30 06:36:33;;;;;;;1.57;1.47;;;;;;;4.33;84.45;94151.91;5021727;28;20350;-71
2021/01/30 06:39:09;;;;;;;2.13;1.13;;;;;;;4.18;85.18;94151.91;5016211;28;20684;-71
2021/01/30 06:41:38;;;;;;;4.40;0.50;;;;;;;4.22;84.75;94137.53;5003920;28;20244;-71
2021/01/30 06:44:15;;;;;;;4.50;0.80;;;;;;;4.29;84.41;94164.50;5023546;28;20312;-71
2021/01/30 06:47:09;;;;;;;3.97;2.17;;;;;;;4.21;84.87;94148.97;5018019;28;20233;-71
2021/01/30 06:49:39;;;;;;;5.50;1.13;;;;;;;4.29;84.51;94145.41;5019747;28;20257;-71
2021/01/30 06:52:10;;;;;;;6.53;1.37;;;;;;;4.35;84.21;94149.13;5012059;28;20310;-72
2021/01/30 06:54:37;;;;;;;1.13;0.47;;;;;;;4.26;84.45;94140.56;5021847;28;20255;-71
2021/01/30 06:57:07;;;;;;;2.10;0.83;;;;;;;4.22;84.28;94147.97;5016144;28;20728;-72
2021/01/30 06:59:37;;;;;;;6.17;1.97;;;;;;;4.16;85.02;94133.03;5020333;28;20235;-72
2021/01/30 07:02:15;;;;;;;5.20;1.70;;;;;;;4.22;84.50;94144.56;5019573;28;20580;-72
2021/01/30 07:05:28;;;;;;;2.30;2.10;;;;;;;4.29;84.29;94143.63;5016105;28;20220;-71
2021/01/30 07:08:18;;;;;;;7.70;1.87;;;;;;;4.39;83.85;94150.34;4977873;28;20220;-71
2021/01/30 07:10:53;;;;;;;2.30;0.87;;;;;;;4.39;83.76;94152.97;5014337;28;20579;-72
2021/01/30 07:13:34;;;;;;;13.53;1.33;;;;;;;4.37;84.02;94144.50;5023876;28;20227;-71
2021/01/30 07:16:11;;;;;;;1.70;0.60;;;;;;;4.29;84.11;94141.00;5012978;28;20739;-72
2021/01/30 07:18:52;;;;;;;0.70;0.60;;;;;;;4.29;84.09;94154.06;5017108;28;20256;-72
2021/01/30 07:21:22;;;;;;;6.60;1.70;;;;;;;4.23;84.38;94152.19;5018269;28;20235;-72
2021/01/30 07:24:00;;;;;;;1.37;0.83;;;;;;;4.35;84.10;94154.34;5017556;28;20323;-71
2021/01/30 07:26:34;;;;;;;5.30;1.73;;;;;;;4.39;83.75;94152.97;5014033;28;20560;-71
2021/01/30 07:29:06;;;;;;;5.13;1.90;;;;;;;4.34;84.19;94157.94;5005200;28;20495;-71
2021/01/30 07:31:36;;;;;;;3.47;0.80;;;;;;;4.41;83.58;94140.56;5015717;28;20314;-71
2021/01/30 07:34:12;;;;;;;4.33;1.30;;;;;;;4.40;83.80;94141.56;5024313;28;20262;-71
2021/01/30 07:36:45;;;;;;;3.80;0.80;;;;;;;4.39;83.44;94142.53;5014185;28;20223;-71
2021/01/30 07:39:28;;;;;;;0.80;0.70;;;;;;;4.39;83.21;94130.31;5021417;28;20275;-71
2021/01/30 07:41:58;;;;;;;1.00;0.83;;;;;;;4.22;84.36;94126.28;5024301;28;20277;-72
2021/01/30 07:44:30;;;;;;;1.73;0.53;;;;;;;4.11;85.21;94130.13;5013159;28;20295;-72
2021/01/30 07:47:11;;;;;;;0.90;0.47;;;;;;;4.07;85.76;94122.88;5020053;28;20780;-71
2021/01/30 07:49:42;;;;;;;1.50;0.57;;;;;;;4.12;85.05;94126.56;5019434;28;20267;-72
2021/01/30 07:52:13;;;;;;;5.63;1.37;;;;;;;4.20;84.75;94118.59;5017055;28;20215;-71
2021/01/30 07:54:46;;;;;;;2.40;0.70;;;;;;;4.07;84.83;94126.28;5006836;28;20228;-71
2021/01/30 07:57:56;;;;;;;0.67;0.67;;;;;;;4.29;84.22;94117.50;5024624;28;20215;-72
2021/01/30 08:00:34;;;;;;;1.57;1.03;;;;;;;4.43;83.25;94128.94;4998193;28;20310;-72
2021/01/30 08:03:25;;;;;;;1.83;0.97;;;;;;;4.51;83.10;94120.19;5014841;28;20565;-72
2021/01/30 08:06:07;;;;;;;1.07;0.50;;;;;;;4.50;83.05;94113.34;5023194;28;20799;-71
2021/01/30 08:08:40;;;;;;;2.60;1.53;;;;;;;4.37;83.05;94118.41;5019210;28;20656;-72
2021/01/30 08:11:21;;;;;;;3.17;0.40;;;;;;;4.47;83.05;94114.50;5010412;28;20290;-72
2021/01/30 08:13:58;;;;;;;2.07;0.80;;;;;;;4.49;82.90;94111.72;5022457;28;20232;-72
2021/01/30 08:16:35;;;;;;;1.47;0.70;;;;;;;4.51;82.78;94099.28;5019434;28;20244;-72
2021/01/30 08:19:06;;;;;;;4.90;0.90;;;;;;;4.56;82.52;94102.94;5006679;28;20223;-71
2021/01/30 08:21:41;;;;;;;4.10;0.90;;;;;;;4.49;82.60;94090.81;5018500;28;20225;-71
2021/01/30 08:24:19;;;;;;;2.07;0.50;;;;;;;4.64;82.36;94093.38;5020496;28;20221;-71
2021/01/30 08:26:55;;;;;;;1.80;0.60;;;;;;;4.60;82.54;94090.34;5019843;28;20324;-72
2021/01/30 08:29:27;;;;;;;3.27;1.93;;;;;;;4.64;82.41;94078.50;5027292;28;20227;-71
2021/01/30 08:31:58;;;;;;;5.73;3.23;;;;;;;4.63;82.40;94079.50;5023284;28;20236;-71
2021/01/30 08:34:32;;;;;;;3.80;0.80;;;;;;;4.60;82.08;94071.25;5026250;28;20220;-71
2021/01/30 08:37:01;;;;;;;5.10;0.60;;;;;;;4.68;82.03;94078.97;5019245;28;20276;-71
2021/01/30 08:39:31;;;;;;;3.37;0.80;;;;;;;4.63;82.71;94076.88;5016207;28;20234;-72
2021/01/30 08:42:04;;;;;;;1.73;0.83;;;;;;;4.56;82.22;94087.25;5017290;28;20232;-71
2021/01/30 08:44:39;;;;;;;0.53;0.40;;;;;;;4.57;82.04;94073.25;5025039;28;20710;-71
2021/01/30 08:47:13;;;;;;;2.40;0.83;;;;;;;4.66;82.07;94076.50;5022816;28;20224;-71
2021/01/30 08:49:41;;;;;;;3.43;0.50;;;;;;;4.54;82.80;94063.13;5012737;28;20241;-71
2021/01/30 08:52:21;;;;;;;2.00;1.13;;;;;;;4.54;82.94;94063.13;5018115;28;20253;-71
2021/01/30 08:54:48;;;;;;;6.40;2.10;;;;;;;4.58;82.53;94066.22;5010237;28;20229;-71
2021/01/30 08:57:42;;;;;;;3.33;0.83;;;;;;;4.69;82.09;94076.16;5020083;28;20288;-71
2021/01/30 09:00:47;;;;;;;5.43;0.60;;;;;;;4.74;81.93;94078.19;5018326;28;20233;-71
2021/01/30 09:03:44;;;;;;;4.63;1.67;;;;;;;4.84;82.28;94058.59;5015918;28;20239;-71
2021/01/30 09:06:31;;;;;;;2.57;1.00;;;;;;;4.96;81.94;94058.09;5021631;28;20228;-71
2021/01/30 09:09:05;;;;;;;3.33;0.50;;;;;;;5.32;80.75;94061.41;5000779;28;20239;-71
2021/01/30 09:11:42;;;;;;;2.17;0.83;;;;;;;6.00;78.95;94056.34;5014644;28;20230;-70
2021/01/30 09:14:33;;;;;;;4.03;1.30;;;;;;;7.01;75.50;94051.97;5018157;28;20336;-71
2021/01/30 09:17:20;;;;;;;3.87;1.87;;;;;;;7.69;72.06;94049.91;5027087;28;20288;-71
2021/01/30 09:19:57;;;;;;;1.90;0.77;;;;;;;7.81;70.49;94044.00;5019663;28;20580;-72
2021/01/30 09:22:34;;;;;;;2.77;2.03;;;;;;;8.13;70.83;94045.69;5019693;28;20301;-71
2021/01/30 09:25:18;;;;;;;8.23;0.83;;;;;;;7.95;70.92;94037.69;5019554;28;20281;-71
2021/01/30 09:27:49;;;;;;;6.13;1.53;;;;;;;8.06;70.34;94047.56;5020808;28;20331;-71
2021/01/30 09:30:30;;;;;;;2.50;0.57;;;;;;;7.86;70.14;94054.69;5007261;28;20342;-72
2021/01/30 09:33:01;;;;;;;4.37;1.30;;;;;;;7.83;70.50;94055.09;5022722;28;20223;-72
2021/01/30 09:35:32;;;;;;;5.87;1.10;;;;;;;7.08;72.00;94046.72;5024432;28;20312;-71
2021/01/30 09:38:17;;;;;;;2.17;0.73;;;;;;;6.93;73.13;94070.50;5025552;28;20307;-71
2021/01/30 09:40:44;;;;;;;3.97;1.40;;;;;;;7.05;72.71;94053.19;5013622;28;20247;-71
2021/01/30 09:43:11;;;;;;;8.40;1.87;;;;;;;7.03;72.75;94060.44;5020226;28;20302;-71
2021/01/30 09:45:46;;;;;;;1.07;0.90;;;;;;;6.99;72.90;94058.41;5022651;28;20262;-71
2021/01/30 09:48:14;;;;;;;3.00;0.77;;;;;;;6.97;72.51;94063.88;5026294;28;20215;-71
2021/01/30 09:50:48;;;;;;;2.77;0.97;;;;;;;7.19;73.06;94043.50;5018085;28;20314;-71
2021/01/30 09:53:24;;;;;;;2.13;1.03;;;;;;;7.25;72.20;94062.88;5017270;28;20293;-71
2021/01/30 09:56:08;;;;;;;2.03;1.10;;;;;;;7.34;72.78;94051.16;5020779;28;20888;-72
2021/01/30 09:58:37;;;;;;;5.70;2.33;;;;;;;7.32;71.67;94042.69;5007590;28;20306;-72
2021/01/30 10:01:09;;;;;;;3.47;0.73;;;;;;;7.46;71.72;94065.28;5022979;28;20228;-71
2021/01/30 10:03:41;;;;;;;3.20;0.93;;;;;;;7.61;69.58;94058.00;5020714;28;20216;-71
2021/01/30 10:06:14;;;;;;;3.63;0.93;;;;;;;8.05;69.95;94055.66;5021987;28;20688;-72
2021/01/30 10:08:42;;;;;;;1.70;0.57;;;;;;;8.01;68.55;94042.13;5010361;28;20232;-71
2021/01/30 10:11:14;;;;;;;3.93;1.53;;;;;;;8.32;68.42;94027.44;5012927;28;20366;-71
2021/01/30 10:13:43;;;;;;;4.87;2.10;;;;;;;8.69;66.40;94039.81;5021449;28;20610;-71
2021/01/30 10:16:13;;;;;;;2.67;0.57;;;;;;;8.80;65.22;94036.50;5020555;28;20353;-71
2021/01/30 10:18:45;;;;;;;1.77;0.63;;;;;;;9.27;65.26;94031.69;5013692;28;20223;-72
2021/01/30 10:21:14;;;;;;;1.27;1.07;;;;;;;8.84;64.42;94029.78;5020778;28;20702;-71
2021/01/30 10:23:44;;;;;;;1.47;1.37;;;;;;;8.43;66.35;94042.59;5009651;28;20230;-71
2021/01/30 10:26:16;;;;;;;3.03;2.00;;;;;;;8.43;67.01;94030.25;5006210;28;20220;-71
2021/01/30 10:28:53;;;;;;;3.10;0.70;;;;;;;8.90;65.56;94027.34;5017708;28;20255;-71
2021/01/30 10:31:24;;;;;;;3.87;0.87;;;;;;;8.89;65.61;94015.22;5016700;28;20310;-72
2021/01/30 10:33:59;;;;;;;2.87;1.57;;;;;;;8.83;63.71;94007.13;5023705;28;20226;-72
2021/01/30 10:36:28;;;;;;;0.90;0.60;;;;;;;9.43;64.88;94003.22;5015959;28;20724;-72
2021/01/30 10:38:55;;;;;;;4.10;1.30;;;;;;;9.85;63.36;94005.00;5004041;28;20238;-72
2021/01/30 10:41:27;;;;;;;3.10;1.50;;;;;;;9.86;59.49;94003.16;5016989;28;20265;-72
2021/01/30 10:44:02;;;;;;;7.50;3.03;;;;;;;9.94;62.21;94001.03;5024431;28;20258;-72
2021/01/30 10:46:39;;;;;;;10.83;2.93;;;;;;;9.58;63.44;94011.56;5011959;28;20828;-72
2021/01/30 10:49:16;;;;;;;2.47;1.40;;;;;;;8.83;65.19;94036.06;5017499;28;20251;-71
2021/01/30 10:51:44;;;;;;;1.33;0.60;;;;;;;8.22;67.09;94023.44;5017003;28;20223;-71
2021/01/30 10:54:25;;;;;;;8.03;1.50;;;;;;;7.62;68.46;94028.09;5021753;28;20227;-71
2021/01/30 10:57:23;;;;;;;6.33;1.90;;;;;;;7.33;70.94;94034.63;5016051;28;20310;-71
2021/01/30 10:59:54;;;;;;;1.47;0.97;;;;;;;7.12;71.37;94019.88;5024019;28;20224;-71
2021/01/30 11:02:37;;;;;;;6.50;1.43;;;;;;;7.11;71.69;94025.31;5024819;28;20302;-71
2021/01/30 11:05:11;;;;;;;2.17;1.97;;;;;;;6.87;72.83;94003.16;5016640;28;20232;-71
2021/01/30 11:07:43;;;;;;;1.77;0.80;;;;;;;7.03;73.30;94018.47;5022898;28;20640;-72
2021/01/30 11:10:22;;;;;;;2.90;1.23;;;;;;;6.97;73.33;93998.31;5020573;28;20316;-71
2021/01/30 11:12:49;;;;;;;1.83;1.17;;;;;;;6.96;71.10;94009.00;5021169;28;20243;-71
2021/01/30 11:15:20;;;;;;;1.40;0.77;;;;;;;6.94;70.93;94011.00;5023681;28;20302;-71
2021/01/30 11:17:47;;;;;;;2.37;1.57;;;;;;;6.92;72.35;94000.72;5021240;28;20231;-71
2021/01/30 11:20:40;;;;;;;2.03;1.23;;;;;;;6.86;71.65;94004.16;5023759;28;20215;-71
2021/01/30 11:23:08;;;;;;;3.07;1.67;;;;;;;6.92;72.00;94000.72;5020499;28;20645;-71
2021/01/30 11:25:38;;;;;;;4.80;2.40;;;;;;;7.03;73.00;93999.31;5022714;28;20302;-71
2021/01/30 11:28:06;;;;;;;1.40;1.30;;;;;;;6.91;70.56;93986.00;5025196;28;20315;-71
2021/01/30 11:30:32;;;;;;;2.87;1.73;;;;;;;6.86;72.71;93977.94;5022558;28;20241;-71
2021/01/30 11:33:04;;;;;;;1.80;0.50;;;;;;;6.85;72.06;93990.22;5022466;28;20215;-71
2021/01/30 11:35:34;;;;;;;0.90;0.83;;;;;;;6.85;69.93;93973.69;5020903;28;20227;-72
2021/01/30 11:38:06;;;;;;;4.10;1.97;;;;;;;6.88;69.32;93973.31;5002487;28;20223;-71
2021/01/30 11:40:33;;;;;;;0.83;0.20;;;;;;;6.87;70.09;93949.91;5021226;28;20293;-71
2021/01/30 11:43:03;;;;;;;6.13;1.63;;;;;;;6.76;71.57;93946.88;5022123;28;20255;-71
2021/01/30 11:45:30;;;;;;;1.10;0.47;;;;;;;6.95;70.39;93937.41;5021176;28;20277;-71
2021/01/30 11:47:57;;;;;;;0.60;0.60;;;;;;;6.91;70.36;93930.94;5005502;28;21258;-71
2021/01/30 11:50:24;;;;;;;0.73;0.30;;;;;;;6.90;69.42;93945.06;5018429;28;20216;-71
2021/01/30 11:52:52;;;;;;;0.70;0.70;;;;;;;6.98;69.86;93957.16;5011405;28;20362;-71
2021/01/30 11:55:19;;;;;;;3.10;0.83;;;;;;;6.85;69.36;93943.03;5021313;28;20289;-71
2021/01/30 11:57:46;;;;;;;1.53;0.40;;;;;;;6.73;69.78;93923.69;5025078;28;20246;-71
2021/01/30 12:00:14;;;;;;;0.83;0.20;;;;;;;6.58;69.08;93928.31;5020380;28;20336;-71
2021/01/30 12:02:43;;;;;;;2.07;0.67;;;;;;;6.53;68.91;93923.69;5025922;28;20668;-71
2021/01/30 12:05:13;;;;;;;0.40;0.37;;;;;;;6.45;70.68;93921.28;5020879;28;20258;-70
2021/01/30 12:07:40;;;;;;;0.50;0.20;;;;;;;6.46;69.78;93917.63;5025561;28;20581;-70
2021/01/30 12:10:09;;;;;;;0.60;0.40;;;;;;;6.48;68.87;93917.44;5023152;28;20236;-71